sensor_id;sensor_type;location;lat;lon;timestamp;P1;durP1;ratioP1;P2;durP2;ratioP2
67514;SDS011;60646;55.802;37.032;2022-09-27T00:02:01;3.22;;;1.20;;
67514;SDS011;60646;55.802;37.032;2022-09-27T00:04:27;3.22;;;1.15;;
67514;SDS011;60646;55.802;37.032;2022-09-27T00:06:53;2.35;;;1.38;;
67514;SDS011;60646;55.802;37.032;2022-09-27T00:09:19;1.60;;;0.88;;
67514;SDS011;60646;55.802;37.032;2022-09-27T00:11:45;4.57;;;1.10;;
67514;SDS011;60646;55.802;37.032;2022-09-27T00:14:15;1.55;;;0.90;;
67514;SDS011;60646;55.802;37.032;2022-09-27T00:16:42;2.10;;;1.00;;
67514;SDS011;60646;55.802;37.032;2022-09-27T00:19:11;1.77;;;0.90;;
67514;SDS011;60646;55.802;37.032;2022-09-27T00:21:38;1.45;;;1.10;;
67514;SDS011;60646;55.802;37.032;2022-09-27T00:24:05;0.80;;;0.75;;
67514;SDS011;60646;55.802;37.032;2022-09-27T00:26:30;1.23;;;0.80;;
67514;SDS011;60646;55.802;37.032;2022-09-27T00:28:56;1.90;;;0.70;;
67514;SDS011;60646;55.802;37.032;2022-09-27T00:31:26;1.27;;;0.98;;
67514;SDS011;60646;55.802;37.032;2022-09-27T00:34:20;1.27;;;0.80;;
67514;SDS011;60646;55.802;37.032;2022-09-27T00:36:48;1.52;;;0.98;;
67514;SDS011;60646;55.802;37.032;2022-09-27T00:39:14;1.85;;;1.10;;
67514;SDS011;60646;55.802;37.032;2022-09-27T00:41:41;1.77;;;0.70;;
67514;SDS011;60646;55.802;37.032;2022-09-27T00:49:46;3.13;;;1.00;;
67514;SDS011;60646;55.802;37.032;2022-09-27T00:52:21;3.25;;;0.90;;
67514;SDS011;60646;55.802;37.032;2022-09-27T00:54:52;1.42;;;0.90;;
67514;SDS011;60646;55.802;37.032;2022-09-27T00:57:22;1.25;;;0.85;;
67514;SDS011;60646;55.802;37.032;2022-09-27T00:59:49;2.22;;;1.30;;
67514;SDS011;60646;55.802;37.032;2022-09-27T01:02:19;1.83;;;1.00;;
67514;SDS011;60646;55.802;37.032;2022-09-27T01:04:46;7.47;;;1.10;;
67514;SDS011;60646;55.802;37.032;2022-09-27T01:07:14;5.82;;;0.90;;
67514;SDS011;60646;55.802;37.032;2022-09-27T01:09:39;5.20;;;0.85;;
67514;SDS011;60646;55.802;37.032;2022-09-27T01:17:36;2.72;;;1.25;;
67514;SDS011;60646;55.802;37.032;2022-09-27T01:20:32;2.08;;;0.77;;
67514;SDS011;60646;55.802;37.032;2022-09-27T01:31:45;0.85;;;0.60;;
67514;SDS011;60646;55.802;37.032;2022-09-27T01:45:48;1.33;;;0.88;;
67514;SDS011;60646;55.802;37.032;2022-09-27T01:48:38;3.03;;;0.60;;
67514;SDS011;60646;55.802;37.032;2022-09-27T01:51:17;2.80;;;0.70;;
67514;SDS011;60646;55.802;37.032;2022-09-27T01:53:52;0.88;;;0.75;;
67514;SDS011;60646;55.802;37.032;2022-09-27T01:56:48;4.05;;;0.80;;
67514;SDS011;60646;55.802;37.032;2022-09-27T02:02:26;1.10;;;0.80;;
67514;SDS011;60646;55.802;37.032;2022-09-27T02:05:13;0.63;;;0.43;;
67514;SDS011;60646;55.802;37.032;2022-09-27T02:07:56;1.05;;;0.70;;
67514;SDS011;60646;55.802;37.032;2022-09-27T02:10:28;1.40;;;0.70;;
67514;SDS011;60646;55.802;37.032;2022-09-27T02:18:46;1.10;;;0.80;;
67514;SDS011;60646;55.802;37.032;2022-09-27T02:21:15;1.02;;;0.73;;
67514;SDS011;60646;55.802;37.032;2022-09-27T02:26:18;1.25;;;0.90;;
67514;SDS011;60646;55.802;37.032;2022-09-27T02:28:48;4.43;;;0.73;;
67514;SDS011;60646;55.802;37.032;2022-09-27T02:31:31;4.35;;;0.70;;
67514;SDS011;60646;55.802;37.032;2022-09-27T02:34:11;5.47;;;0.65;;
67514;SDS011;60646;55.802;37.032;2022-09-27T02:36:40;0.70;;;0.52;;
67514;SDS011;60646;55.802;37.032;2022-09-27T02:39:06;2.10;;;0.60;;
67514;SDS011;60646;55.802;37.032;2022-09-27T02:41:33;3.97;;;0.80;;
67514;SDS011;60646;55.802;37.032;2022-09-27T02:44:01;4.07;;;0.70;;
67514;SDS011;60646;55.802;37.032;2022-09-27T02:46:34;0.60;;;0.60;;
67514;SDS011;60646;55.802;37.032;2022-09-27T03:07:37;0.50;;;0.50;;
67514;SDS011;60646;55.802;37.032;2022-09-27T03:10:05;1.30;;;0.55;;
67514;SDS011;60646;55.802;37.032;2022-09-27T03:12:31;2.67;;;0.60;;
67514;SDS011;60646;55.802;37.032;2022-09-27T03:14:58;0.73;;;0.50;;
67514;SDS011;60646;55.802;37.032;2022-09-27T03:17:45;0.50;;;0.50;;
67514;SDS011;60646;55.802;37.032;2022-09-27T03:20:37;0.43;;;0.43;;
67514;SDS011;60646;55.802;37.032;2022-09-27T03:23:07;0.73;;;0.50;;
67514;SDS011;60646;55.802;37.032;2022-09-27T03:25:33;1.38;;;0.50;;
67514;SDS011;60646;55.802;37.032;2022-09-27T03:27:58;3.72;;;0.50;;
67514;SDS011;60646;55.802;37.032;2022-09-27T03:30:25;0.65;;;0.52;;
67514;SDS011;60646;55.802;37.032;2022-09-27T03:32:51;0.30;;;0.30;;
67514;SDS011;60646;55.802;37.032;2022-09-27T03:35:32;0.50;;;0.50;;
67514;SDS011;60646;55.802;37.032;2022-09-27T03:37:58;3.13;;;0.50;;
67514;SDS011;60646;55.802;37.032;2022-09-27T03:40:24;0.50;;;0.50;;
67514;SDS011;60646;55.802;37.032;2022-09-27T03:42:50;3.33;;;0.40;;
67514;SDS011;60646;55.802;37.032;2022-09-27T03:45:16;3.53;;;0.40;;
67514;SDS011;60646;55.802;37.032;2022-09-27T03:47:43;0.47;;;0.47;;
67514;SDS011;60646;55.802;37.032;2022-09-27T03:50:09;3.13;;;0.40;;
67514;SDS011;60646;55.802;37.032;2022-09-27T03:52:36;0.80;;;0.60;;
67514;SDS011;60646;55.802;37.032;2022-09-27T03:55:02;3.20;;;0.47;;
67514;SDS011;60646;55.802;37.032;2022-09-27T03:57:29;0.95;;;0.55;;
67514;SDS011;60646;55.802;37.032;2022-09-27T03:59:57;0.50;;;0.40;;
67514;SDS011;60646;55.802;37.032;2022-09-27T04:02:40;0.75;;;0.60;;
67514;SDS011;60646;55.802;37.032;2022-09-27T04:05:25;2.50;;;0.52;;
67514;SDS011;60646;55.802;37.032;2022-09-27T04:08:19;0.57;;;0.50;;
67514;SDS011;60646;55.802;37.032;2022-09-27T04:10:46;2.72;;;0.40;;
67514;SDS011;60646;55.802;37.032;2022-09-27T04:13:15;0.43;;;0.40;;
67514;SDS011;60646;55.802;37.032;2022-09-27T04:15:49;0.40;;;0.40;;
67514;SDS011;60646;55.802;37.032;2022-09-27T04:18:18;0.57;;;0.50;;
67514;SDS011;60646;55.802;37.032;2022-09-27T04:21:12;0.57;;;0.50;;
67514;SDS011;60646;55.802;37.032;2022-09-27T04:23:48;0.30;;;0.30;;
67514;SDS011;60646;55.802;37.032;2022-09-27T04:26:16;3.33;;;0.70;;
67514;SDS011;60646;55.802;37.032;2022-09-27T04:28:57;0.55;;;0.50;;
67514;SDS011;60646;55.802;37.032;2022-09-27T04:31:24;2.50;;;1.00;;
67514;SDS011;60646;55.802;37.032;2022-09-27T04:34:12;3.08;;;1.10;;
67514;SDS011;60646;55.802;37.032;2022-09-27T04:36:38;5.45;;;1.00;;
67514;SDS011;60646;55.802;37.032;2022-09-27T04:39:11;2.17;;;1.00;;
67514;SDS011;60646;55.802;37.032;2022-09-27T04:41:43;2.70;;;0.93;;
67514;SDS011;60646;55.802;37.032;2022-09-27T04:44:13;1.83;;;0.90;;
67514;SDS011;60646;55.802;37.032;2022-09-27T04:46:43;3.20;;;1.42;;
67514;SDS011;60646;55.802;37.032;2022-09-27T04:49:12;8.25;;;1.40;;
67514;SDS011;60646;55.802;37.032;2022-09-27T04:51:41;3.47;;;1.45;;
67514;SDS011;60646;55.802;37.032;2022-09-27T04:54:07;5.65;;;1.80;;
67514;SDS011;60646;55.802;37.032;2022-09-27T04:56:45;6.22;;;1.17;;
67514;SDS011;60646;55.802;37.032;2022-09-27T04:59:23;2.53;;;1.10;;
67514;SDS011;60646;55.802;37.032;2022-09-27T05:01:49;2.75;;;1.17;;
67514;SDS011;60646;55.802;37.032;2022-09-27T05:04:34;4.88;;;1.25;;
67514;SDS011;60646;55.802;37.032;2022-09-27T05:07:01;3.03;;;1.52;;
67514;SDS011;60646;55.802;37.032;2022-09-27T05:09:41;8.20;;;1.15;;
67514;SDS011;60646;55.802;37.032;2022-09-27T05:12:07;3.03;;;0.80;;
67514;SDS011;60646;55.802;37.032;2022-09-27T05:15:05;2.45;;;1.05;;
67514;SDS011;60646;55.802;37.032;2022-09-27T05:17:32;5.13;;;1.00;;
67514;SDS011;60646;55.802;37.032;2022-09-27T05:20:16;2.13;;;0.90;;
67514;SDS011;60646;55.802;37.032;2022-09-27T05:23:10;1.33;;;0.93;;
67514;SDS011;60646;55.802;37.032;2022-09-27T05:25:36;1.80;;;1.05;;
67514;SDS011;60646;55.802;37.032;2022-09-27T05:28:02;2.20;;;1.40;;
67514;SDS011;60646;55.802;37.032;2022-09-27T05:30:29;4.72;;;1.38;;
67514;SDS011;60646;55.802;37.032;2022-09-27T05:33:06;4.45;;;1.50;;
67514;SDS011;60646;55.802;37.032;2022-09-27T05:35:51;2.78;;;1.38;;
67514;SDS011;60646;55.802;37.032;2022-09-27T05:38:25;3.63;;;1.40;;
67514;SDS011;60646;55.802;37.032;2022-09-27T05:40:56;9.38;;;1.55;;
67514;SDS011;60646;55.802;37.032;2022-09-27T05:43:23;3.55;;;1.40;;
67514;SDS011;60646;55.802;37.032;2022-09-27T05:45:50;3.38;;;1.60;;
67514;SDS011;60646;55.802;37.032;2022-09-27T05:48:19;2.58;;;1.63;;
67514;SDS011;60646;55.802;37.032;2022-09-27T05:51:00;2.38;;;1.40;;
67514;SDS011;60646;55.802;37.032;2022-09-27T05:53:26;5.60;;;1.35;;
67514;SDS011;60646;55.802;37.032;2022-09-27T05:55:52;4.78;;;1.90;;
67514;SDS011;60646;55.802;37.032;2022-09-27T05:58:25;4.35;;;2.08;;
67514;SDS011;60646;55.802;37.032;2022-09-27T06:01:05;10.27;;;2.47;;
67514;SDS011;60646;55.802;37.032;2022-09-27T06:03:55;2.80;;;1.65;;
67514;SDS011;60646;55.802;37.032;2022-09-27T06:06:45;3.75;;;1.67;;
67514;SDS011;60646;55.802;37.032;2022-09-27T06:09:21;5.85;;;1.85;;
67514;SDS011;60646;55.802;37.032;2022-09-27T06:11:48;12.65;;;3.22;;
67514;SDS011;60646;55.802;37.032;2022-09-27T06:14:15;5.63;;;2.67;;
67514;SDS011;60646;55.802;37.032;2022-09-27T06:17:04;7.35;;;2.28;;
67514;SDS011;60646;55.802;37.032;2022-09-27T06:19:33;6.25;;;2.78;;
67514;SDS011;60646;55.802;37.032;2022-09-27T06:22:00;11.27;;;4.50;;
67514;SDS011;60646;55.802;37.032;2022-09-27T06:24:35;6.43;;;3.40;;
67514;SDS011;60646;55.802;37.032;2022-09-27T06:27:06;8.93;;;2.40;;
67514;SDS011;60646;55.802;37.032;2022-09-27T06:30:08;11.10;;;2.60;;
67514;SDS011;60646;55.802;37.032;2022-09-27T06:32:46;9.85;;;3.13;;
67514;SDS011;60646;55.802;37.032;2022-09-27T06:35:28;7.82;;;2.95;;
67514;SDS011;60646;55.802;37.032;2022-09-27T06:38:14;10.27;;;3.08;;
67514;SDS011;60646;55.802;37.032;2022-09-27T06:40:49;5.82;;;2.38;;
67514;SDS011;60646;55.802;37.032;2022-09-27T06:43:30;4.43;;;2.22;;
67514;SDS011;60646;55.802;37.032;2022-09-27T06:46:12;10.80;;;3.10;;
67514;SDS011;60646;55.802;37.032;2022-09-27T06:48:54;6.82;;;2.83;;
67514;SDS011;60646;55.802;37.032;2022-09-27T06:51:21;7.95;;;2.80;;
67514;SDS011;60646;55.802;37.032;2022-09-27T06:53:48;9.05;;;2.58;;
67514;SDS011;60646;55.802;37.032;2022-09-27T06:56:13;4.43;;;2.28;;
67514;SDS011;60646;55.802;37.032;2022-09-27T06:58:46;5.60;;;1.88;;
67514;SDS011;60646;55.802;37.032;2022-09-27T07:01:41;2.92;;;2.03;;
67514;SDS011;60646;55.802;37.032;2022-09-27T07:04:26;3.70;;;1.95;;
67514;SDS011;60646;55.802;37.032;2022-09-27T07:07:03;3.80;;;2.30;;
67514;SDS011;60646;55.802;37.032;2022-09-27T07:09:35;3.72;;;2.10;;
67514;SDS011;60646;55.802;37.032;2022-09-27T07:12:04;5.50;;;1.98;;
67514;SDS011;60646;55.802;37.032;2022-09-27T07:14:30;8.15;;;2.08;;
67514;SDS011;60646;55.802;37.032;2022-09-27T07:17:01;4.18;;;2.08;;
67514;SDS011;60646;55.802;37.032;2022-09-27T07:19:54;3.65;;;1.85;;
67514;SDS011;60646;55.802;37.032;2022-09-27T07:22:20;2.47;;;1.73;;
67514;SDS011;60646;55.802;37.032;2022-09-27T07:24:52;4.63;;;2.08;;
67514;SDS011;60646;55.802;37.032;2022-09-27T07:27:19;2.72;;;1.80;;
67514;SDS011;60646;55.802;37.032;2022-09-27T07:29:45;3.53;;;1.85;;
67514;SDS011;60646;55.802;37.032;2022-09-27T07:32:24;3.35;;;2.13;;
67514;SDS011;60646;55.802;37.032;2022-09-27T07:35:15;3.40;;;1.95;;
67514;SDS011;60646;55.802;37.032;2022-09-27T07:38:01;2.20;;;1.38;;
67514;SDS011;60646;55.802;37.032;2022-09-27T07:40:28;2.15;;;1.58;;
67514;SDS011;60646;55.802;37.032;2022-09-27T07:42:54;2.03;;;1.30;;
67514;SDS011;60646;55.802;37.032;2022-09-27T07:45:23;3.03;;;1.45;;
67514;SDS011;60646;55.802;37.032;2022-09-27T07:48:05;3.33;;;1.70;;
67514;SDS011;60646;55.802;37.032;2022-09-27T07:50:52;3.13;;;1.80;;
67514;SDS011;60646;55.802;37.032;2022-09-27T07:53:36;2.78;;;1.80;;
67514;SDS011;60646;55.802;37.032;2022-09-27T07:56:22;3.50;;;1.77;;
67514;SDS011;60646;55.802;37.032;2022-09-27T07:58:48;2.92;;;2.20;;
67514;SDS011;60646;55.802;37.032;2022-09-27T08:01:14;2.85;;;1.90;;
67514;SDS011;60646;55.802;37.032;2022-09-27T08:03:40;3.22;;;2.00;;
67514;SDS011;60646;55.802;37.032;2022-09-27T08:06:25;3.15;;;2.00;;
67514;SDS011;60646;55.802;37.032;2022-09-27T08:08:52;4.38;;;2.08;;
67514;SDS011;60646;55.802;37.032;2022-09-27T08:11:19;2.85;;;1.80;;
67514;SDS011;60646;55.802;37.032;2022-09-27T08:13:50;3.33;;;2.03;;
67514;SDS011;60646;55.802;37.032;2022-09-27T08:16:24;5.32;;;2.78;;
67514;SDS011;60646;55.802;37.032;2022-09-27T08:19:10;4.20;;;2.65;;
67514;SDS011;60646;55.802;37.032;2022-09-27T08:21:59;4.72;;;3.00;;
67514;SDS011;60646;55.802;37.032;2022-09-27T08:24:31;4.22;;;2.95;;
67514;SDS011;60646;55.802;37.032;2022-09-27T08:27:04;4.90;;;2.88;;
67514;SDS011;60646;55.802;37.032;2022-09-27T08:29:45;4.07;;;2.83;;
67514;SDS011;60646;55.802;37.032;2022-09-27T08:32:12;4.78;;;2.92;;
67514;SDS011;60646;55.802;37.032;2022-09-27T08:34:38;4.60;;;2.78;;
67514;SDS011;60646;55.802;37.032;2022-09-27T08:37:04;4.20;;;2.97;;
67514;SDS011;60646;55.802;37.032;2022-09-27T08:39:31;4.63;;;2.70;;
67514;SDS011;60646;55.802;37.032;2022-09-27T08:45:17;6.55;;;3.22;;
67514;SDS011;60646;55.802;37.032;2022-09-27T08:47:55;4.18;;;2.65;;
67514;SDS011;60646;55.802;37.032;2022-09-27T08:50:27;5.28;;;3.38;;
67514;SDS011;60646;55.802;37.032;2022-09-27T09:01:17;6.50;;;3.40;;
67514;SDS011;60646;55.802;37.032;2022-09-27T09:03:56;5.30;;;3.25;;
67514;SDS011;60646;55.802;37.032;2022-09-27T09:06:26;5.90;;;3.65;;
67514;SDS011;60646;55.802;37.032;2022-09-27T09:23:07;6.57;;;4.43;;
67514;SDS011;60646;55.802;37.032;2022-09-27T09:35:18;6.35;;;4.55;;
67514;SDS011;60646;55.802;37.032;2022-09-27T09:37:52;7.35;;;5.20;;
67514;SDS011;60646;55.802;37.032;2022-09-27T09:40:41;8.35;;;5.85;;
67514;SDS011;60646;55.802;37.032;2022-09-27T09:49:35;6.68;;;5.43;;
67514;SDS011;60646;55.802;37.032;2022-09-27T09:52:06;8.50;;;5.32;;
67514;SDS011;60646;55.802;37.032;2022-09-27T09:54:42;6.38;;;5.18;;
67514;SDS011;60646;55.802;37.032;2022-09-27T09:57:14;8.93;;;6.30;;
67514;SDS011;60646;55.802;37.032;2022-09-27T10:02:33;6.55;;;4.40;;
67514;SDS011;60646;55.802;37.032;2022-09-27T10:05:14;6.45;;;4.75;;
67514;SDS011;60646;55.802;37.032;2022-09-27T10:07:42;6.43;;;4.60;;
67514;SDS011;60646;55.802;37.032;2022-09-27T10:10:13;9.73;;;5.22;;
67514;SDS011;60646;55.802;37.032;2022-09-27T10:12:59;7.85;;;4.60;;
67514;SDS011;60646;55.802;37.032;2022-09-27T10:15:31;7.10;;;4.65;;
67514;SDS011;60646;55.802;37.032;2022-09-27T10:17:58;10.07;;;6.45;;
67514;SDS011;60646;55.802;37.032;2022-09-27T10:20:30;8.57;;;4.72;;
67514;SDS011;60646;55.802;37.032;2022-09-27T10:25:55;6.03;;;4.43;;
67514;SDS011;60646;55.802;37.032;2022-09-27T10:28:43;6.82;;;4.32;;
67514;SDS011;60646;55.802;37.032;2022-09-27T10:31:15;6.28;;;3.92;;
67514;SDS011;60646;55.802;37.032;2022-09-27T10:34:05;5.32;;;3.80;;
67514;SDS011;60646;55.802;37.032;2022-09-27T10:36:40;6.35;;;3.95;;
67514;SDS011;60646;55.802;37.032;2022-09-27T10:39:09;5.30;;;3.88;;
67514;SDS011;60646;55.802;37.032;2022-09-27T10:41:46;10.88;;;4.40;;
67514;SDS011;60646;55.802;37.032;2022-09-27T10:44:30;6.20;;;3.38;;
67514;SDS011;60646;55.802;37.032;2022-09-27T10:47:26;4.80;;;3.20;;
67514;SDS011;60646;55.802;37.032;2022-09-27T10:50:03;7.95;;;3.58;;
67514;SDS011;60646;55.802;37.032;2022-09-27T10:52:47;3.92;;;3.08;;
67514;SDS011;60646;55.802;37.032;2022-09-27T10:55:21;4.07;;;3.25;;
67514;SDS011;60646;55.802;37.032;2022-09-27T10:57:52;5.68;;;3.80;;
67514;SDS011;60646;55.802;37.032;2022-09-27T11:00:24;8.18;;;5.15;;
67514;SDS011;60646;55.802;37.032;2022-09-27T11:03:11;5.78;;;4.53;;
67514;SDS011;60646;55.802;37.032;2022-09-27T11:05:40;8.57;;;5.15;;
67514;SDS011;60646;55.802;37.032;2022-09-27T11:11:04;6.68;;;5.18;;
67514;SDS011;60646;55.802;37.032;2022-09-27T11:13:41;6.65;;;4.82;;
67514;SDS011;60646;55.802;37.032;2022-09-27T11:16:25;8.52;;;5.13;;
67514;SDS011;60646;55.802;37.032;2022-09-27T11:19:29;7.32;;;4.95;;
67514;SDS011;60646;55.802;37.032;2022-09-27T11:22:07;6.30;;;4.32;;
67514;SDS011;60646;55.802;37.032;2022-09-27T11:30:20;5.25;;;3.28;;
67514;SDS011;60646;55.802;37.032;2022-09-27T11:33:32;5.38;;;3.40;;
67514;SDS011;60646;55.802;37.032;2022-09-27T11:42:34;4.90;;;3.45;;
67514;SDS011;60646;55.802;37.032;2022-09-27T11:56:14;5.97;;;3.60;;
67514;SDS011;60646;55.802;37.032;2022-09-27T11:59:07;4.77;;;3.60;;
67514;SDS011;60646;55.802;37.032;2022-09-27T12:02:01;4.88;;;2.90;;
67514;SDS011;60646;55.802;37.032;2022-09-27T12:09:50;5.93;;;3.38;;
67514;SDS011;60646;55.802;37.032;2022-09-27T12:12:24;6.90;;;3.13;;
67514;SDS011;60646;55.802;37.032;2022-09-27T12:17:30;5.28;;;3.40;;
67514;SDS011;60646;55.802;37.032;2022-09-27T12:20:05;6.13;;;3.13;;
67514;SDS011;60646;55.802;37.032;2022-09-27T12:22:49;4.78;;;3.47;;
67514;SDS011;60646;55.802;37.032;2022-09-27T12:25:25;4.30;;;2.78;;
67514;SDS011;60646;55.802;37.032;2022-09-27T12:31:29;4.18;;;2.88;;
67514;SDS011;60646;55.802;37.032;2022-09-27T12:36:42;4.80;;;2.72;;
67514;SDS011;60646;55.802;37.032;2022-09-27T12:39:22;3.97;;;2.40;;
67514;SDS011;60646;55.802;37.032;2022-09-27T12:42:06;2.80;;;2.03;;
67514;SDS011;60646;55.802;37.032;2022-09-27T12:45:10;2.65;;;1.85;;
67514;SDS011;60646;55.802;37.032;2022-09-27T12:47:45;3.58;;;1.95;;
67514;SDS011;60646;55.802;37.032;2022-09-27T12:53:16;3.22;;;1.90;;
67514;SDS011;60646;55.802;37.032;2022-09-27T13:06:50;3.47;;;1.35;;
67514;SDS011;60646;55.802;37.032;2022-09-27T13:12:39;1.90;;;1.40;;
67514;SDS011;60646;55.802;37.032;2022-09-27T13:15:13;3.53;;;1.50;;
67514;SDS011;60646;55.802;37.032;2022-09-27T13:34:41;2.63;;;1.60;;
67514;SDS011;60646;55.802;37.032;2022-09-27T13:37:46;6.30;;;1.42;;
67514;SDS011;60646;55.802;37.032;2022-09-27T13:45:56;2.80;;;1.57;;
67514;SDS011;60646;55.802;37.032;2022-09-27T13:51:00;3.95;;;1.85;;
67514;SDS011;60646;55.802;37.032;2022-09-27T13:53:39;2.55;;;1.50;;
67514;SDS011;60646;55.802;37.032;2022-09-27T14:02:59;2.38;;;1.48;;
67514;SDS011;60646;55.802;37.032;2022-09-27T14:05:48;2.95;;;1.60;;
67514;SDS011;60646;55.802;37.032;2022-09-27T14:08:19;3.10;;;1.50;;
67514;SDS011;60646;55.802;37.032;2022-09-27T14:10:50;1.83;;;1.40;;
67514;SDS011;60646;55.802;37.032;2022-09-27T14:13:17;1.75;;;1.25;;
67514;SDS011;60646;55.802;37.032;2022-09-27T14:15:53;6.03;;;1.58;;
67514;SDS011;60646;55.802;37.032;2022-09-27T14:18:21;4.78;;;2.22;;
67514;SDS011;60646;55.802;37.032;2022-09-27T14:20:49;5.60;;;2.45;;
67514;SDS011;60646;55.802;37.032;2022-09-27T14:23:49;5.88;;;2.45;;
67514;SDS011;60646;55.802;37.032;2022-09-27T14:26:22;5.50;;;3.10;;
67514;SDS011;60646;55.802;37.032;2022-09-27T14:28:52;4.45;;;2.30;;
67514;SDS011;60646;55.802;37.032;2022-09-27T14:31:28;5.25;;;2.03;;
67514;SDS011;60646;55.802;37.032;2022-09-27T14:34:10;3.13;;;1.95;;
67514;SDS011;60646;55.802;37.032;2022-09-27T14:36:40;2.75;;;1.77;;
67514;SDS011;60646;55.802;37.032;2022-09-27T14:39:31;3.13;;;1.65;;
67514;SDS011;60646;55.802;37.032;2022-09-27T14:42:04;2.75;;;1.40;;
67514;SDS011;60646;55.802;37.032;2022-09-27T14:44:42;1.95;;;1.45;;
67514;SDS011;60646;55.802;37.032;2022-09-27T14:47:16;3.42;;;1.63;;
67514;SDS011;60646;55.802;37.032;2022-09-27T14:49:50;3.53;;;2.00;;
67514;SDS011;60646;55.802;37.032;2022-09-27T14:52:37;2.78;;;1.73;;
67514;SDS011;60646;55.802;37.032;2022-09-27T14:55:16;5.15;;;2.83;;
67514;SDS011;60646;55.802;37.032;2022-09-27T14:58:04;10.88;;;3.55;;
67514;SDS011;60646;55.802;37.032;2022-09-27T15:00:33;7.28;;;3.38;;
67514;SDS011;60646;55.802;37.032;2022-09-27T15:03:02;4.10;;;2.60;;
67514;SDS011;60646;55.802;37.032;2022-09-27T15:05:33;2.70;;;1.40;;
67514;SDS011;60646;55.802;37.032;2022-09-27T15:08:03;3.95;;;1.55;;
67514;SDS011;60646;55.802;37.032;2022-09-27T15:10:32;3.10;;;1.73;;
67514;SDS011;60646;55.802;37.032;2022-09-27T15:13:00;3.15;;;1.80;;
67514;SDS011;60646;55.802;37.032;2022-09-27T15:15:30;3.08;;;1.60;;
67514;SDS011;60646;55.802;37.032;2022-09-27T15:17:58;4.00;;;1.85;;
67514;SDS011;60646;55.802;37.032;2022-09-27T15:22:53;6.18;;;2.50;;
67514;SDS011;60646;55.802;37.032;2022-09-27T15:27:57;6.82;;;2.38;;
67514;SDS011;60646;55.802;37.032;2022-09-27T15:30:26;5.20;;;2.22;;
67514;SDS011;60646;55.802;37.032;2022-09-27T15:32:57;4.95;;;2.42;;
67514;SDS011;60646;55.802;37.032;2022-09-27T15:35:25;3.25;;;2.05;;
67514;SDS011;60646;55.802;37.032;2022-09-27T15:43:19;3.80;;;1.88;;
67514;SDS011;60646;55.802;37.032;2022-09-27T15:45:50;5.82;;;2.10;;
67514;SDS011;60646;55.802;37.032;2022-09-27T15:48:17;3.85;;;2.08;;
67514;SDS011;60646;55.802;37.032;2022-09-27T15:50:45;4.40;;;2.28;;
67514;SDS011;60646;55.802;37.032;2022-09-27T15:56:03;4.97;;;3.30;;
67514;SDS011;60646;55.802;37.032;2022-09-27T15:58:31;4.97;;;3.23;;
67514;SDS011;60646;55.802;37.032;2022-09-27T16:01:00;3.40;;;2.25;;
67514;SDS011;60646;55.802;37.032;2022-09-27T16:03:28;3.65;;;2.13;;
67514;SDS011;60646;55.802;37.032;2022-09-27T16:05:54;3.58;;;2.35;;
67514;SDS011;60646;55.802;37.032;2022-09-27T16:08:21;4.00;;;2.50;;
67514;SDS011;60646;55.802;37.032;2022-09-27T16:10:48;4.22;;;2.40;;
67514;SDS011;60646;55.802;37.032;2022-09-27T16:13:17;8.80;;;3.00;;
67514;SDS011;60646;55.802;37.032;2022-09-27T16:15:43;7.90;;;3.33;;
67514;SDS011;60646;55.802;37.032;2022-09-27T16:18:09;6.28;;;3.28;;
67514;SDS011;60646;55.802;37.032;2022-09-27T16:20:36;6.45;;;4.07;;
67514;SDS011;60646;55.802;37.032;2022-09-27T16:23:02;7.90;;;4.00;;
67514;SDS011;60646;55.802;37.032;2022-09-27T16:25:28;8.52;;;4.53;;
67514;SDS011;60646;55.802;37.032;2022-09-27T16:27:58;10.98;;;3.90;;
67514;SDS011;60646;55.802;37.032;2022-09-27T16:30:24;8.27;;;4.28;;
67514;SDS011;60646;55.802;37.032;2022-09-27T16:32:51;10.52;;;4.93;;
67514;SDS011;60646;55.802;37.032;2022-09-27T16:35:18;7.32;;;3.17;;
67514;SDS011;60646;55.802;37.032;2022-09-27T16:37:45;13.32;;;6.72;;
67514;SDS011;60646;55.802;37.032;2022-09-27T16:40:11;19.33;;;8.05;;
67514;SDS011;60646;55.802;37.032;2022-09-27T16:42:38;15.00;;;6.53;;
67514;SDS011;60646;55.802;37.032;2022-09-27T16:45:05;11.75;;;5.60;;
67514;SDS011;60646;55.802;37.032;2022-09-27T16:47:32;12.60;;;5.65;;
67514;SDS011;60646;55.802;37.032;2022-09-27T16:49:58;12.07;;;5.60;;
67514;SDS011;60646;55.802;37.032;2022-09-27T16:52:42;10.43;;;5.10;;
67514;SDS011;60646;55.802;37.032;2022-09-27T16:55:15;9.40;;;5.43;;
67514;SDS011;60646;55.802;37.032;2022-09-27T16:57:48;11.93;;;4.90;;
67514;SDS011;60646;55.802;37.032;2022-09-27T17:00:15;11.07;;;5.25;;
67514;SDS011;60646;55.802;37.032;2022-09-27T17:02:42;10.13;;;5.05;;
67514;SDS011;60646;55.802;37.032;2022-09-27T17:05:12;11.20;;;5.75;;
67514;SDS011;60646;55.802;37.032;2022-09-27T17:07:38;15.73;;;7.63;;
67514;SDS011;60646;55.802;37.032;2022-09-27T17:10:05;15.25;;;6.93;;
67514;SDS011;60646;55.802;37.032;2022-09-27T17:12:31;19.83;;;6.97;;
67514;SDS011;60646;55.802;37.032;2022-09-27T17:14:57;18.73;;;7.15;;
67514;SDS011;60646;55.802;37.032;2022-09-27T17:17:23;18.27;;;6.82;;
67514;SDS011;60646;55.802;37.032;2022-09-27T17:22:41;19.33;;;7.75;;
67514;SDS011;60646;55.802;37.032;2022-09-27T17:25:10;18.10;;;6.80;;
67514;SDS011;60646;55.802;37.032;2022-09-27T17:27:36;19.33;;;6.97;;
67514;SDS011;60646;55.802;37.032;2022-09-27T17:30:02;15.02;;;6.50;;
67514;SDS011;60646;55.802;37.032;2022-09-27T17:32:31;12.82;;;6.45;;
67514;SDS011;60646;55.802;37.032;2022-09-27T17:35:08;12.43;;;6.10;;
67514;SDS011;60646;55.802;37.032;2022-09-27T17:37:36;15.13;;;6.40;;
67514;SDS011;60646;55.802;37.032;2022-09-27T17:40:09;9.57;;;4.55;;
67514;SDS011;60646;55.802;37.032;2022-09-27T17:42:36;13.15;;;4.78;;
67514;SDS011;60646;55.802;37.032;2022-09-27T17:45:02;6.38;;;3.92;;
67514;SDS011;60646;55.802;37.032;2022-09-27T17:47:30;8.52;;;4.45;;
67514;SDS011;60646;55.802;37.032;2022-09-27T17:50:14;10.95;;;5.15;;
67514;SDS011;60646;55.802;37.032;2022-09-27T17:55:35;7.65;;;3.47;;
67514;SDS011;60646;55.802;37.032;2022-09-27T17:58:01;8.23;;;3.30;;
67514;SDS011;60646;55.802;37.032;2022-09-27T18:00:28;11.23;;;4.65;;
67514;SDS011;60646;55.802;37.032;2022-09-27T18:02:54;9.63;;;4.68;;
67514;SDS011;60646;55.802;37.032;2022-09-27T18:05:20;11.52;;;4.65;;
67514;SDS011;60646;55.802;37.032;2022-09-27T18:07:50;8.57;;;4.32;;
67514;SDS011;60646;55.802;37.032;2022-09-27T18:10:16;9.15;;;4.03;;
67514;SDS011;60646;55.802;37.032;2022-09-27T18:12:42;8.75;;;4.45;;
67514;SDS011;60646;55.802;37.032;2022-09-27T18:15:08;12.10;;;5.28;;
67514;SDS011;60646;55.802;37.032;2022-09-27T18:17:34;12.20;;;5.35;;
67514;SDS011;60646;55.802;37.032;2022-09-27T18:20:07;14.45;;;6.00;;
67514;SDS011;60646;55.802;37.032;2022-09-27T18:22:34;13.02;;;6.00;;
67514;SDS011;60646;55.802;37.032;2022-09-27T18:25:00;15.50;;;5.97;;
67514;SDS011;60646;55.802;37.032;2022-09-27T18:27:29;16.25;;;6.63;;
67514;SDS011;60646;55.802;37.032;2022-09-27T18:29:55;17.45;;;6.95;;
67514;SDS011;60646;55.802;37.032;2022-09-27T18:32:26;16.00;;;7.35;;
67514;SDS011;60646;55.802;37.032;2022-09-27T18:35:03;16.92;;;7.53;;
67514;SDS011;60646;55.802;37.032;2022-09-27T18:37:50;19.08;;;6.90;;
67514;SDS011;60646;55.802;37.032;2022-09-27T18:45:26;11.20;;;4.85;;
67514;SDS011;60646;55.802;37.032;2022-09-27T18:47:57;16.42;;;6.65;;
67514;SDS011;60646;55.802;37.032;2022-09-27T18:51:29;14.95;;;6.78;;
67514;SDS011;60646;55.802;37.032;2022-09-27T18:53:59;11.57;;;6.28;;